sensor_id;sensor_type;location;lat;lon;timestamp;P1;durP1;ratioP1;P2;durP2;ratioP2
8622;SDS011;4349;47.552;8.904;2024-02-23T00:00:13;0.70;;;0.70;;
8622;SDS011;4349;47.552;8.904;2024-02-23T00:02:43;0.60;;;0.60;;
8622;SDS011;4349;47.552;8.904;2024-02-23T00:05:10;0.70;;;0.70;;
8622;SDS011;4349;47.552;8.904;2024-02-23T00:07:39;1.20;;;0.70;;
8622;SDS011;4349;47.552;8.904;2024-02-23T00:10:07;0.73;;;0.73;;
8622;SDS011;4349;47.552;8.904;2024-02-23T00:12:35;0.80;;;0.80;;
8622;SDS011;4349;47.552;8.904;2024-02-23T00:15:02;0.70;;;0.70;;
8622;SDS011;4349;47.552;8.904;2024-02-23T00:17:30;0.60;;;0.60;;
8622;SDS011;4349;47.552;8.904;2024-02-23T00:19:58;0.60;;;0.60;;
8622;SDS011;4349;47.552;8.904;2024-02-23T00:22:26;0.60;;;0.60;;
8622;SDS011;4349;47.552;8.904;2024-02-23T00:24:55;0.73;;;0.73;;
8622;SDS011;4349;47.552;8.904;2024-02-23T00:27:22;0.70;;;0.70;;
8622;SDS011;4349;47.552;8.904;2024-02-23T00:29:50;0.70;;;0.70;;
8622;SDS011;4349;47.552;8.904;2024-02-23T00:32:18;0.60;;;0.60;;
8622;SDS011;4349;47.552;8.904;2024-02-23T00:34:45;0.60;;;0.60;;
8622;SDS011;4349;47.552;8.904;2024-02-23T00:37:13;0.60;;;0.60;;
8622;SDS011;4349;47.552;8.904;2024-02-23T00:39:41;0.70;;;0.70;;
8622;SDS011;4349;47.552;8.904;2024-02-23T00:42:10;0.70;;;0.70;;
8622;SDS011;4349;47.552;8.904;2024-02-23T00:44:38;0.70;;;0.70;;
8622;SDS011;4349;47.552;8.904;2024-02-23T00:47:06;0.50;;;0.50;;
8622;SDS011;4349;47.552;8.904;2024-02-23T00:49:33;0.67;;;0.67;;
8622;SDS011;4349;47.552;8.904;2024-02-23T00:52:01;0.70;;;0.70;;
8622;SDS011;4349;47.552;8.904;2024-02-23T00:54:28;0.70;;;0.70;;
8622;SDS011;4349;47.552;8.904;2024-02-23T00:56:56;0.97;;;0.70;;
8622;SDS011;4349;47.552;8.904;2024-02-23T00:59:25;1.33;;;0.70;;
8622;SDS011;4349;47.552;8.904;2024-02-23T01:01:53;0.60;;;0.60;;
8622;SDS011;4349;47.552;8.904;2024-02-23T01:04:21;0.77;;;0.63;;
8622;SDS011;4349;47.552;8.904;2024-02-23T01:06:49;0.70;;;0.70;;
8622;SDS011;4349;47.552;8.904;2024-02-23T01:09:16;1.60;;;0.80;;
8622;SDS011;4349;47.552;8.904;2024-02-23T01:11:46;0.90;;;0.70;;
8622;SDS011;4349;47.552;8.904;2024-02-23T01:14:14;0.50;;;0.50;;
8622;SDS011;4349;47.552;8.904;2024-02-23T01:16:43;0.70;;;0.70;;
8622;SDS011;4349;47.552;8.904;2024-02-23T01:19:11;0.70;;;0.70;;
8622;SDS011;4349;47.552;8.904;2024-02-23T01:21:39;0.60;;;0.60;;
8622;SDS011;4349;47.552;8.904;2024-02-23T01:24:07;0.50;;;0.50;;
8622;SDS011;4349;47.552;8.904;2024-02-23T01:26:34;0.60;;;0.60;;
8622;SDS011;4349;47.552;8.904;2024-02-23T01:29:07;0.60;;;0.60;;
8622;SDS011;4349;47.552;8.904;2024-02-23T01:31:34;0.40;;;0.40;;
8622;SDS011;4349;47.552;8.904;2024-02-23T01:34:03;0.50;;;0.50;;
8622;SDS011;4349;47.552;8.904;2024-02-23T01:36:32;0.50;;;0.50;;
8622;SDS011;4349;47.552;8.904;2024-02-23T01:38:59;0.97;;;0.50;;
8622;SDS011;4349;47.552;8.904;2024-02-23T01:41:27;0.60;;;0.60;;
8622;SDS011;4349;47.552;8.904;2024-02-23T01:43:55;0.60;;;0.60;;
8622;SDS011;4349;47.552;8.904;2024-02-23T01:46:22;0.70;;;0.70;;
8622;SDS011;4349;47.552;8.904;2024-02-23T01:48:49;0.63;;;0.63;;
8622;SDS011;4349;47.552;8.904;2024-02-23T01:51:18;1.10;;;0.80;;
8622;SDS011;4349;47.552;8.904;2024-02-23T01:53:46;0.80;;;0.80;;
8622;SDS011;4349;47.552;8.904;2024-02-23T01:56:14;0.60;;;0.60;;
8622;SDS011;4349;47.552;8.904;2024-02-23T01:58:45;0.80;;;0.80;;
8622;SDS011;4349;47.552;8.904;2024-02-23T02:01:13;0.63;;;0.63;;
8622;SDS011;4349;47.552;8.904;2024-02-23T02:03:41;0.70;;;0.70;;
8622;SDS011;4349;47.552;8.904;2024-02-23T02:06:09;0.70;;;0.70;;
8622;SDS011;4349;47.552;8.904;2024-02-23T02:08:38;0.80;;;0.80;;
8622;SDS011;4349;47.552;8.904;2024-02-23T02:11:06;1.03;;;0.97;;
8622;SDS011;4349;47.552;8.904;2024-02-23T02:13:34;0.73;;;0.73;;
8622;SDS011;4349;47.552;8.904;2024-02-23T02:16:01;0.90;;;0.90;;
8622;SDS011;4349;47.552;8.904;2024-02-23T02:18:29;0.90;;;0.90;;
8622;SDS011;4349;47.552;8.904;2024-02-23T02:20:57;0.93;;;0.93;;
8622;SDS011;4349;47.552;8.904;2024-02-23T02:23:25;0.97;;;0.90;;
8622;SDS011;4349;47.552;8.904;2024-02-23T02:25:55;0.73;;;0.73;;
8622;SDS011;4349;47.552;8.904;2024-02-23T02:28:22;0.80;;;0.80;;
8622;SDS011;4349;47.552;8.904;2024-02-23T02:30:50;0.80;;;0.80;;
8622;SDS011;4349;47.552;8.904;2024-02-23T02:33:18;0.90;;;0.90;;
8622;SDS011;4349;47.552;8.904;2024-02-23T02:35:46;0.80;;;0.80;;
8622;SDS011;4349;47.552;8.904;2024-02-23T02:38:14;0.80;;;0.80;;
8622;SDS011;4349;47.552;8.904;2024-02-23T02:40:41;1.50;;;0.90;;
8622;SDS011;4349;47.552;8.904;2024-02-23T02:43:11;1.03;;;0.80;;
8622;SDS011;4349;47.552;8.904;2024-02-23T02:45:38;0.70;;;0.70;;
8622;SDS011;4349;47.552;8.904;2024-02-23T02:48:06;0.83;;;0.60;;
8622;SDS011;4349;47.552;8.904;2024-02-23T02:50:34;0.70;;;0.70;;
8622;SDS011;4349;47.552;8.904;2024-02-23T02:53:02;0.70;;;0.70;;
8622;SDS011;4349;47.552;8.904;2024-02-23T02:55:29;0.60;;;0.60;;
8622;SDS011;4349;47.552;8.904;2024-02-23T02:57:57;0.73;;;0.73;;
8622;SDS011;4349;47.552;8.904;2024-02-23T03:00:26;0.70;;;0.70;;
8622;SDS011;4349;47.552;8.904;2024-02-23T03:02:54;1.33;;;0.70;;
8622;SDS011;4349;47.552;8.904;2024-02-23T03:05:21;0.70;;;0.70;;
8622;SDS011;4349;47.552;8.904;2024-02-23T03:07:49;0.60;;;0.60;;
8622;SDS011;4349;47.552;8.904;2024-02-23T03:10:16;0.50;;;0.50;;
8622;SDS011;4349;47.552;8.904;2024-02-23T03:12:44;0.70;;;0.70;;
8622;SDS011;4349;47.552;8.904;2024-02-23T03:15:12;0.40;;;0.40;;
8622;SDS011;4349;47.552;8.904;2024-02-23T03:17:41;0.93;;;0.57;;
8622;SDS011;4349;47.552;8.904;2024-02-23T03:20:10;0.53;;;0.53;;
8622;SDS011;4349;47.552;8.904;2024-02-23T03:22:38;0.60;;;0.60;;
8622;SDS011;4349;47.552;8.904;2024-02-23T03:25:06;0.40;;;0.40;;
8622;SDS011;4349;47.552;8.904;2024-02-23T03:27:36;0.47;;;0.47;;
8622;SDS011;4349;47.552;8.904;2024-02-23T03:30:04;0.53;;;0.53;;
8622;SDS011;4349;47.552;8.904;2024-02-23T03:32:34;0.60;;;0.60;;
8622;SDS011;4349;47.552;8.904;2024-02-23T03:35:07;0.60;;;0.60;;
8622;SDS011;4349;47.552;8.904;2024-02-23T03:37:35;0.50;;;0.50;;
8622;SDS011;4349;47.552;8.904;2024-02-23T03:40:04;0.47;;;0.47;;
8622;SDS011;4349;47.552;8.904;2024-02-23T03:42:31;0.50;;;0.50;;
8622;SDS011;4349;47.552;8.904;2024-02-23T03:44:59;0.70;;;0.70;;
8622;SDS011;4349;47.552;8.904;2024-02-23T03:47:27;0.50;;;0.50;;
8622;SDS011;4349;47.552;8.904;2024-02-23T03:49:55;0.50;;;0.50;;
8622;SDS011;4349;47.552;8.904;2024-02-23T03:52:24;0.50;;;0.50;;
8622;SDS011;4349;47.552;8.904;2024-02-23T03:54:51;0.60;;;0.60;;
8622;SDS011;4349;47.552;8.904;2024-02-23T03:57:21;0.50;;;0.50;;
8622;SDS011;4349;47.552;8.904;2024-02-23T03:59:51;0.40;;;0.40;;
8622;SDS011;4349;47.552;8.904;2024-02-23T04:02:19;0.40;;;0.40;;
8622;SDS011;4349;47.552;8.904;2024-02-23T04:04:47;0.53;;;0.50;;
8622;SDS011;4349;47.552;8.904;2024-02-23T04:07:15;0.47;;;0.47;;
8622;SDS011;4349;47.552;8.904;2024-02-23T04:09:44;0.60;;;0.60;;
8622;SDS011;4349;47.552;8.904;2024-02-23T04:12:12;0.47;;;0.47;;
8622;SDS011;4349;47.552;8.904;2024-02-23T04:14:39;0.40;;;0.40;;
8622;SDS011;4349;47.552;8.904;2024-02-23T04:17:07;0.50;;;0.50;;
8622;SDS011;4349;47.552;8.904;2024-02-23T04:19:35;0.60;;;0.60;;
8622;SDS011;4349;47.552;8.904;2024-02-23T04:22:02;0.50;;;0.50;;
8622;SDS011;4349;47.552;8.904;2024-02-23T04:24:30;0.50;;;0.50;;
8622;SDS011;4349;47.552;8.904;2024-02-23T04:26:59;0.60;;;0.60;;
8622;SDS011;4349;47.552;8.904;2024-02-23T04:29:26;0.50;;;0.50;;
8622;SDS011;4349;47.552;8.904;2024-02-23T04:31:54;0.70;;;0.70;;
8622;SDS011;4349;47.552;8.904;2024-02-23T04:34:22;0.70;;;0.70;;
8622;SDS011;4349;47.552;8.904;2024-02-23T04:36:49;0.50;;;0.50;;
8622;SDS011;4349;47.552;8.904;2024-02-23T04:39:17;0.60;;;0.60;;
8622;SDS011;4349;47.552;8.904;2024-02-23T04:41:44;0.80;;;0.80;;
8622;SDS011;4349;47.552;8.904;2024-02-23T04:44:13;0.50;;;0.50;;
8622;SDS011;4349;47.552;8.904;2024-02-23T04:46:41;0.60;;;0.60;;
8622;SDS011;4349;47.552;8.904;2024-02-23T04:49:09;0.57;;;0.50;;
8622;SDS011;4349;47.552;8.904;2024-02-23T04:51:38;0.60;;;0.60;;
8622;SDS011;4349;47.552;8.904;2024-02-23T04:54:05;0.60;;;0.60;;
8622;SDS011;4349;47.552;8.904;2024-02-23T04:56:33;0.40;;;0.40;;
8622;SDS011;4349;47.552;8.904;2024-02-23T04:59:01;0.50;;;0.50;;
8622;SDS011;4349;47.552;8.904;2024-02-23T05:01:34;0.50;;;0.50;;
8622;SDS011;4349;47.552;8.904;2024-02-23T05:04:02;0.40;;;0.40;;
8622;SDS011;4349;47.552;8.904;2024-02-23T05:06:29;0.60;;;0.60;;
8622;SDS011;4349;47.552;8.904;2024-02-23T05:08:57;0.90;;;0.57;;
8622;SDS011;4349;47.552;8.904;2024-02-23T05:11:24;0.57;;;0.57;;
8622;SDS011;4349;47.552;8.904;2024-02-23T05:13:52;0.50;;;0.50;;
8622;SDS011;4349;47.552;8.904;2024-02-23T05:16:20;0.50;;;0.50;;
8622;SDS011;4349;47.552;8.904;2024-02-23T05:18:49;0.50;;;0.50;;
8622;SDS011;4349;47.552;8.904;2024-02-23T05:21:16;0.50;;;0.50;;
8622;SDS011;4349;47.552;8.904;2024-02-23T05:23:44;0.80;;;0.80;;
8622;SDS011;4349;47.552;8.904;2024-02-23T05:26:12;0.60;;;0.60;;
8622;SDS011;4349;47.552;8.904;2024-02-23T05:28:40;0.60;;;0.60;;
8622;SDS011;4349;47.552;8.904;2024-02-23T05:31:09;0.50;;;0.50;;
8622;SDS011;4349;47.552;8.904;2024-02-23T05:33:36;0.50;;;0.50;;
8622;SDS011;4349;47.552;8.904;2024-02-23T05:36:06;0.87;;;0.87;;
8622;SDS011;4349;47.552;8.904;2024-02-23T05:38:34;0.63;;;0.63;;
8622;SDS011;4349;47.552;8.904;2024-02-23T05:41:01;0.70;;;0.70;;
8622;SDS011;4349;47.552;8.904;2024-02-23T05:43:31;0.80;;;0.80;;
8622;SDS011;4349;47.552;8.904;2024-02-23T05:45:59;0.90;;;0.90;;
8622;SDS011;4349;47.552;8.904;2024-02-23T05:48:26;0.90;;;0.90;;
8622;SDS011;4349;47.552;8.904;2024-02-23T05:50:54;1.20;;;1.20;;
8622;SDS011;4349;47.552;8.904;2024-02-23T05:53:23;0.80;;;0.80;;
8622;SDS011;4349;47.552;8.904;2024-02-23T05:55:50;1.20;;;1.10;;
8622;SDS011;4349;47.552;8.904;2024-02-23T05:58:18;1.40;;;1.40;;
8622;SDS011;4349;47.552;8.904;2024-02-23T06:00:47;1.40;;;1.40;;
8622;SDS011;4349;47.552;8.904;2024-02-23T06:03:16;1.40;;;1.40;;
8622;SDS011;4349;47.552;8.904;2024-02-23T06:05:44;2.30;;;1.40;;
8622;SDS011;4349;47.552;8.904;2024-02-23T06:08:12;1.30;;;1.30;;
8622;SDS011;4349;47.552;8.904;2024-02-23T06:10:41;1.10;;;1.10;;
8622;SDS011;4349;47.552;8.904;2024-02-23T06:13:09;1.30;;;1.20;;
8622;SDS011;4349;47.552;8.904;2024-02-23T06:15:37;1.10;;;1.10;;
8622;SDS011;4349;47.552;8.904;2024-02-23T06:18:05;1.40;;;1.10;;
8622;SDS011;4349;47.552;8.904;2024-02-23T06:20:33;1.00;;;1.00;;
8622;SDS011;4349;47.552;8.904;2024-02-23T06:23:00;1.10;;;1.10;;
8622;SDS011;4349;47.552;8.904;2024-02-23T06:25:28;1.33;;;1.33;;
8622;SDS011;4349;47.552;8.904;2024-02-23T06:27:57;1.30;;;1.30;;
8622;SDS011;4349;47.552;8.904;2024-02-23T06:30:25;1.30;;;1.30;;
8622;SDS011;4349;47.552;8.904;2024-02-23T06:32:52;1.43;;;1.43;;
8622;SDS011;4349;47.552;8.904;2024-02-23T06:35:20;1.90;;;1.90;;
8622;SDS011;4349;47.552;8.904;2024-02-23T06:37:48;1.60;;;1.60;;
8622;SDS011;4349;47.552;8.904;2024-02-23T06:40:16;1.33;;;1.33;;
8622;SDS011;4349;47.552;8.904;2024-02-23T06:42:44;1.30;;;1.30;;
8622;SDS011;4349;47.552;8.904;2024-02-23T06:45:13;1.00;;;1.00;;
8622;SDS011;4349;47.552;8.904;2024-02-23T06:47:41;1.10;;;1.10;;
8622;SDS011;4349;47.552;8.904;2024-02-23T06:50:09;0.90;;;0.90;;
8622;SDS011;4349;47.552;8.904;2024-02-23T06:52:37;0.87;;;0.87;;
8622;SDS011;4349;47.552;8.904;2024-02-23T06:55:04;1.13;;;1.13;;
8622;SDS011;4349;47.552;8.904;2024-02-23T06:57:33;1.00;;;1.00;;
8622;SDS011;4349;47.552;8.904;2024-02-23T07:00:00;1.00;;;1.00;;
8622;SDS011;4349;47.552;8.904;2024-02-23T07:02:29;1.60;;;1.20;;
8622;SDS011;4349;47.552;8.904;2024-02-23T07:05:00;1.10;;;1.00;;
8622;SDS011;4349;47.552;8.904;2024-02-23T07:07:30;1.23;;;1.20;;
8622;SDS011;4349;47.552;8.904;2024-02-23T07:09:59;1.13;;;1.13;;
8622;SDS011;4349;47.552;8.904;2024-02-23T07:12:27;1.80;;;0.93;;
8622;SDS011;4349;47.552;8.904;2024-02-23T07:14:55;1.13;;;1.13;;
8622;SDS011;4349;47.552;8.904;2024-02-23T07:17:22;1.10;;;1.10;;
8622;SDS011;4349;47.552;8.904;2024-02-23T07:19:51;1.50;;;1.10;;
8622;SDS011;4349;47.552;8.904;2024-02-23T07:22:19;1.00;;;1.00;;
8622;SDS011;4349;47.552;8.904;2024-02-23T07:24:47;1.20;;;1.20;;
8622;SDS011;4349;47.552;8.904;2024-02-23T07:27:15;0.87;;;0.87;;
8622;SDS011;4349;47.552;8.904;2024-02-23T07:29:43;0.80;;;0.80;;
8622;SDS011;4349;47.552;8.904;2024-02-23T07:32:11;0.90;;;0.90;;
8622;SDS011;4349;47.552;8.904;2024-02-23T07:34:39;0.70;;;0.70;;
8622;SDS011;4349;47.552;8.904;2024-02-23T07:37:08;1.20;;;0.90;;
8622;SDS011;4349;47.552;8.904;2024-02-23T07:39:36;1.03;;;0.90;;
8622;SDS011;4349;47.552;8.904;2024-02-23T07:42:04;0.80;;;0.80;;
8622;SDS011;4349;47.552;8.904;2024-02-23T07:44:32;1.00;;;0.83;;
8622;SDS011;4349;47.552;8.904;2024-02-23T07:47:00;0.73;;;0.73;;
8622;SDS011;4349;47.552;8.904;2024-02-23T07:49:27;0.83;;;0.70;;
8622;SDS011;4349;47.552;8.904;2024-02-23T07:51:55;0.87;;;0.87;;
8622;SDS011;4349;47.552;8.904;2024-02-23T07:54:24;0.80;;;0.80;;
8622;SDS011;4349;47.552;8.904;2024-02-23T07:56:51;1.00;;;1.00;;
8622;SDS011;4349;47.552;8.904;2024-02-23T07:59:19;0.90;;;0.90;;
8622;SDS011;4349;47.552;8.904;2024-02-23T08:01:47;0.80;;;0.80;;
8622;SDS011;4349;47.552;8.904;2024-02-23T08:04:14;0.90;;;0.90;;
8622;SDS011;4349;47.552;8.904;2024-02-23T08:06:42;0.90;;;0.90;;
8622;SDS011;4349;47.552;8.904;2024-02-23T08:09:10;0.90;;;0.90;;
8622;SDS011;4349;47.552;8.904;2024-02-23T08:11:41;0.87;;;0.87;;
8622;SDS011;4349;47.552;8.904;2024-02-23T08:14:08;1.17;;;1.00;;
8622;SDS011;4349;47.552;8.904;2024-02-23T08:16:36;0.97;;;0.97;;
8622;SDS011;4349;47.552;8.904;2024-02-23T08:19:04;1.00;;;1.00;;
8622;SDS011;4349;47.552;8.904;2024-02-23T08:21:31;1.77;;;1.20;;
8622;SDS011;4349;47.552;8.904;2024-02-23T08:23:59;1.00;;;0.97;;
8622;SDS011;4349;47.552;8.904;2024-02-23T08:26:26;0.80;;;0.80;;
8622;SDS011;4349;47.552;8.904;2024-02-23T08:28:55;1.00;;;1.00;;
8622;SDS011;4349;47.552;8.904;2024-02-23T08:31:23;0.80;;;0.80;;
8622;SDS011;4349;47.552;8.904;2024-02-23T08:33:50;1.50;;;1.00;;
8622;SDS011;4349;47.552;8.904;2024-02-23T08:36:18;0.80;;;0.80;;
8622;SDS011;4349;47.552;8.904;2024-02-23T08:38:46;1.00;;;1.00;;
8622;SDS011;4349;47.552;8.904;2024-02-23T08:41:13;1.00;;;1.00;;
8622;SDS011;4349;47.552;8.904;2024-02-23T08:43:41;1.70;;;0.90;;
8622;SDS011;4349;47.552;8.904;2024-02-23T08:46:10;1.73;;;1.20;;
8622;SDS011;4349;47.552;8.904;2024-02-23T08:48:37;1.17;;;1.10;;
8622;SDS011;4349;47.552;8.904;2024-02-23T08:51:05;1.37;;;0.90;;
8622;SDS011;4349;47.552;8.904;2024-02-23T08:53:33;1.23;;;1.13;;
8622;SDS011;4349;47.552;8.904;2024-02-23T08:56:00;1.17;;;1.10;;
8622;SDS011;4349;47.552;8.904;2024-02-23T08:58:28;0.90;;;0.90;;
8622;SDS011;4349;47.552;8.904;2024-02-23T09:00:56;1.03;;;0.97;;
8622;SDS011;4349;47.552;8.904;2024-02-23T09:03:25;1.17;;;1.07;;
8622;SDS011;4349;47.552;8.904;2024-02-23T09:05:52;1.60;;;1.27;;
8622;SDS011;4349;47.552;8.904;2024-02-23T09:08:20;1.13;;;1.10;;
8622;SDS011;4349;47.552;8.904;2024-02-23T09:10:48;1.40;;;1.23;;
8622;SDS011;4349;47.552;8.904;2024-02-23T09:13:15;2.03;;;1.17;;
8622;SDS011;4349;47.552;8.904;2024-02-23T09:15:43;1.57;;;1.13;;
8622;SDS011;4349;47.552;8.904;2024-02-23T09:18:11;1.30;;;1.20;;
8622;SDS011;4349;47.552;8.904;2024-02-23T09:20:39;1.10;;;1.03;;
8622;SDS011;4349;47.552;8.904;2024-02-23T09:23:08;2.30;;;1.10;;
8622;SDS011;4349;47.552;8.904;2024-02-23T09:25:36;1.80;;;1.00;;
8622;SDS011;4349;47.552;8.904;2024-02-23T09:28:05;2.20;;;1.30;;
8622;SDS011;4349;47.552;8.904;2024-02-23T09:30:33;1.03;;;1.03;;
8622;SDS011;4349;47.552;8.904;2024-02-23T09:33:00;1.37;;;1.00;;
8622;SDS011;4349;47.552;8.904;2024-02-23T09:35:28;1.40;;;0.90;;
8622;SDS011;4349;47.552;8.904;2024-02-23T09:37:57;2.23;;;1.20;;
8622;SDS011;4349;47.552;8.904;2024-02-23T09:40:25;1.30;;;1.20;;
8622;SDS011;4349;47.552;8.904;2024-02-23T09:42:55;0.80;;;0.80;;
8622;SDS011;4349;47.552;8.904;2024-02-23T09:45:23;1.20;;;1.17;;
8622;SDS011;4349;47.552;8.904;2024-02-23T09:47:51;1.47;;;1.10;;
8622;SDS011;4349;47.552;8.904;2024-02-23T09:50:20;1.00;;;1.00;;
8622;SDS011;4349;47.552;8.904;2024-02-23T09:52:49;2.07;;;1.20;;
8622;SDS011;4349;47.552;8.904;2024-02-23T09:55:20;2.70;;;1.53;;
8622;SDS011;4349;47.552;8.904;2024-02-23T09:57:48;1.20;;;1.10;;
8622;SDS011;4349;47.552;8.904;2024-02-23T10:00:21;1.40;;;1.10;;
8622;SDS011;4349;47.552;8.904;2024-02-23T10:02:48;1.50;;;1.03;;
8622;SDS011;4349;47.552;8.904;2024-02-23T10:05:17;1.17;;;0.93;;
8622;SDS011;4349;47.552;8.904;2024-02-23T10:07:45;1.07;;;0.87;;
8622;SDS011;4349;47.552;8.904;2024-02-23T10:10:13;1.40;;;1.30;;
8622;SDS011;4349;47.552;8.904;2024-02-23T10:12:42;3.03;;;1.07;;
8622;SDS011;4349;47.552;8.904;2024-02-23T10:15:10;1.00;;;1.00;;
8622;SDS011;4349;47.552;8.904;2024-02-23T10:17:37;1.17;;;1.17;;
8622;SDS011;4349;47.552;8.904;2024-02-23T10:20:06;1.57;;;1.23;;
8622;SDS011;4349;47.552;8.904;2024-02-23T10:22:34;1.00;;;1.00;;
8622;SDS011;4349;47.552;8.904;2024-02-23T10:25:02;1.40;;;1.30;;
8622;SDS011;4349;47.552;8.904;2024-02-23T10:27:31;1.10;;;1.10;;
8622;SDS011;4349;47.552;8.904;2024-02-23T10:30:00;2.10;;;1.20;;
8622;SDS011;4349;47.552;8.904;2024-02-23T10:32:29;1.00;;;1.00;;
8622;SDS011;4349;47.552;8.904;2024-02-23T10:34:58;0.80;;;0.80;;
8622;SDS011;4349;47.552;8.904;2024-02-23T10:37:27;1.50;;;1.10;;
8622;SDS011;4349;47.552;8.904;2024-02-23T10:39:57;1.03;;;1.00;;
8622;SDS011;4349;47.552;8.904;2024-02-23T10:42:25;1.80;;;1.20;;
8622;SDS011;4349;47.552;8.904;2024-02-23T10:44:54;1.90;;;1.30;;
8622;SDS011;4349;47.552;8.904;2024-02-23T10:47:28;1.20;;;1.10;;
8622;SDS011;4349;47.552;8.904;2024-02-23T10:49:58;2.10;;;1.77;;
8622;SDS011;4349;47.552;8.904;2024-02-23T10:52:27;0.87;;;0.87;;
8622;SDS011;4349;47.552;8.904;2024-02-23T10:54:55;0.97;;;0.83;;
8622;SDS011;4349;47.552;8.904;2024-02-23T10:57:24;1.27;;;1.07;;
8622;SDS011;4349;47.552;8.904;2024-02-23T10:59:51;1.30;;;1.20;;
8622;SDS011;4349;47.552;8.904;2024-02-23T11:02:19;1.07;;;1.00;;
8622;SDS011;4349;47.552;8.904;2024-02-23T11:04:49;1.00;;;1.00;;
8622;SDS011;4349;47.552;8.904;2024-02-23T11:07:18;1.73;;;1.07;;
8622;SDS011;4349;47.552;8.904;2024-02-23T11:09:48;1.70;;;1.00;;
8622;SDS011;4349;47.552;8.904;2024-02-23T11:12:22;1.27;;;1.07;;
8622;SDS011;4349;47.552;8.904;2024-02-23T11:14:50;2.00;;;1.90;;
8622;SDS011;4349;47.552;8.904;2024-02-23T11:17:18;1.77;;;1.67;;
8622;SDS011;4349;47.552;8.904;2024-02-23T11:19:49;1.23;;;1.13;;
8622;SDS011;4349;47.552;8.904;2024-02-23T11:22:23;1.20;;;1.20;;
8622;SDS011;4349;47.552;8.904;2024-02-23T11:24:59;1.27;;;1.10;;
8622;SDS011;4349;47.552;8.904;2024-02-23T11:27:30;1.00;;;1.00;;
8622;SDS011;4349;47.552;8.904;2024-02-23T11:30:04;1.20;;;1.10;;
8622;SDS011;4349;47.552;8.904;2024-02-23T11:32:36;2.40;;;1.50;;
8622;SDS011;4349;47.552;8.904;2024-02-23T11:35:07;1.20;;;1.10;;
8622;SDS011;4349;47.552;8.904;2024-02-23T11:37:43;1.70;;;1.20;;
8622;SDS011;4349;47.552;8.904;2024-02-23T11:40:12;0.97;;;0.87;;
8622;SDS011;4349;47.552;8.904;2024-02-23T11:42:40;1.10;;;1.00;;
8622;SDS011;4349;47.552;8.904;2024-02-23T11:45:10;1.43;;;1.20;;
8622;SDS011;4349;47.552;8.904;2024-02-23T11:47:37;1.00;;;1.00;;
8622;SDS011;4349;47.552;8.904;2024-02-23T11:50:08;1.63;;;1.03;;
8622;SDS011;4349;47.552;8.904;2024-02-23T11:52:36;1.17;;;1.17;;
8622;SDS011;4349;47.552;8.904;2024-02-23T11:55:04;1.40;;;1.30;;
8622;SDS011;4349;47.552;8.904;2024-02-23T11:57:33;5.63;;;1.30;;
8622;SDS011;4349;47.552;8.904;2024-02-23T12:00:13;1.33;;;1.20;;
8622;SDS011;4349;47.552;8.904;2024-02-23T12:02:42;0.93;;;0.93;;
8622;SDS011;4349;47.552;8.904;2024-02-23T12:05:12;1.27;;;1.10;;
8622;SDS011;4349;47.552;8.904;2024-02-23T12:07:40;1.27;;;1.17;;
8622;SDS011;4349;47.552;8.904;2024-02-23T12:10:12;1.10;;;0.97;;
8622;SDS011;4349;47.552;8.904;2024-02-23T12:12:40;1.83;;;1.20;;
8622;SDS011;4349;47.552;8.904;2024-02-23T12:15:08;1.30;;;1.20;;
8622;SDS011;4349;47.552;8.904;2024-02-23T12:17:35;3.20;;;1.10;;
8622;SDS011;4349;47.552;8.904;2024-02-23T12:20:03;2.10;;;1.03;;
8622;SDS011;4349;47.552;8.904;2024-02-23T12:22:33;1.70;;;1.60;;
8622;SDS011;4349;47.552;8.904;2024-02-23T12:25:01;1.20;;;1.10;;
8622;SDS011;4349;47.552;8.904;2024-02-23T12:27:29;2.00;;;1.50;;
8622;SDS011;4349;47.552;8.904;2024-02-23T12:29:57;0.90;;;0.90;;
8622;SDS011;4349;47.552;8.904;2024-02-23T12:32:25;1.53;;;1.30;;
8622;SDS011;4349;47.552;8.904;2024-02-23T12:34:53;1.40;;;1.30;;
8622;SDS011;4349;47.552;8.904;2024-02-23T12:37:21;0.90;;;0.90;;
8622;SDS011;4349;47.552;8.904;2024-02-23T12:39:51;2.67;;;1.20;;
8622;SDS011;4349;47.552;8.904;2024-02-23T12:42:18;1.10;;;1.07;;
8622;SDS011;4349;47.552;8.904;2024-02-23T12:44:46;1.63;;;1.00;;
8622;SDS011;4349;47.552;8.904;2024-02-23T12:47:13;2.17;;;1.10;;
8622;SDS011;4349;47.552;8.904;2024-02-23T12:49:41;1.80;;;1.20;;
8622;SDS011;4349;47.552;8.904;2024-02-23T12:52:11;1.53;;;1.00;;
8622;SDS011;4349;47.552;8.904;2024-02-23T12:54:39;1.70;;;1.10;;
8622;SDS011;4349;47.552;8.904;2024-02-23T12:57:09;1.07;;;1.07;;
8622;SDS011;4349;47.552;8.904;2024-02-23T12:59:37;1.03;;;1.03;;
8622;SDS011;4349;47.552;8.904;2024-02-23T13:02:04;1.30;;;0.90;;
8622;SDS011;4349;47.552;8.904;2024-02-23T13:04:33;1.17;;;1.00;;
8622;SDS011;4349;47.552;8.904;2024-02-23T13:07:01;1.37;;;1.27;;
8622;SDS011;4349;47.552;8.904;2024-02-23T13:09:29;1.10;;;1.10;;
8622;SDS011;4349;47.552;8.904;2024-02-23T13:11:56;0.93;;;0.90;;
8622;SDS011;4349;47.552;8.904;2024-02-23T13:14:25;0.80;;;0.80;;
8622;SDS011;4349;47.552;8.904;2024-02-23T13:16:53;1.03;;;0.90;;
8622;SDS011;4349;47.552;8.904;2024-02-23T13:19:20;1.53;;;1.00;;
8622;SDS011;4349;47.552;8.904;2024-02-23T13:21:48;1.80;;;1.00;;
8622;SDS011;4349;47.552;8.904;2024-02-23T13:24:16;1.10;;;1.00;;
8622;SDS011;4349;47.552;8.904;2024-02-23T13:26:43;2.03;;;1.30;;
8622;SDS011;4349;47.552;8.904;2024-02-23T13:29:11;0.90;;;0.90;;
8622;SDS011;4349;47.552;8.904;2024-02-23T13:31:40;0.90;;;0.90;;
8622;SDS011;4349;47.552;8.904;2024-02-23T13:34:07;3.27;;;1.17;;
8622;SDS011;4349;47.552;8.904;2024-02-23T13:36:36;1.53;;;1.00;;
8622;SDS011;4349;47.552;8.904;2024-02-23T13:39:03;1.00;;;0.90;;
8622;SDS011;4349;47.552;8.904;2024-02-23T13:41:31;1.10;;;1.00;;
8622;SDS011;4349;47.552;8.904;2024-02-23T13:43:58;1.20;;;1.10;;
8622;SDS011;4349;47.552;8.904;2024-02-23T13:46:26;1.00;;;1.00;;
8622;SDS011;4349;47.552;8.904;2024-02-23T13:49:03;1.37;;;1.00;;
8622;SDS011;4349;47.552;8.904;2024-02-23T13:51:31;1.77;;;1.10;;
8622;SDS011;4349;47.552;8.904;2024-02-23T13:53:59;2.17;;;1.07;;
8622;SDS011;4349;47.552;8.904;2024-02-23T13:56:26;1.27;;;1.00;;
8622;SDS011;4349;47.552;8.904;2024-02-23T13:58:54;1.43;;;1.33;;
8622;SDS011;4349;47.552;8.904;2024-02-23T14:01:23;2.30;;;1.50;;
8622;SDS011;4349;47.552;8.904;2024-02-23T14:03:51;1.00;;;1.00;;
8622;SDS011;4349;47.552;8.904;2024-02-23T14:06:20;1.07;;;1.00;;
8622;SDS011;4349;47.552;8.904;2024-02-23T14:08:47;1.80;;;1.00;;
8622;SDS011;4349;47.552;8.904;2024-02-23T14:11:15;1.10;;;1.00;;
8622;SDS011;4349;47.552;8.904;2024-02-23T14:13:45;2.10;;;1.17;;
8622;SDS011;4349;47.552;8.904;2024-02-23T14:16:17;1.80;;;1.00;;
8622;SDS011;4349;47.552;8.904;2024-02-23T14:18:44;1.47;;;1.20;;
8622;SDS011;4349;47.552;8.904;2024-02-23T14:21:12;4.63;;;1.70;;
8622;SDS011;4349;47.552;8.904;2024-02-23T14:23:42;1.40;;;1.10;;
8622;SDS011;4349;47.552;8.904;2024-02-23T14:26:10;1.97;;;1.00;;
8622;SDS011;4349;47.552;8.904;2024-02-23T14:28:39;1.13;;;1.03;;
8622;SDS011;4349;47.552;8.904;2024-02-23T14:31:07;1.13;;;1.07;;
8622;SDS011;4349;47.552;8.904;2024-02-23T14:33:34;1.00;;;0.90;;
8622;SDS011;4349;47.552;8.904;2024-02-23T14:36:02;1.00;;;1.00;;
8622;SDS011;4349;47.552;8.904;2024-02-23T14:38:30;1.77;;;1.10;;
8622;SDS011;4349;47.552;8.904;2024-02-23T14:40:59;1.10;;;1.07;;
8622;SDS011;4349;47.552;8.904;2024-02-23T14:43:26;1.10;;;1.10;;
8622;SDS011;4349;47.552;8.904;2024-02-23T14:45:57;1.00;;;1.00;;
8622;SDS011;4349;47.552;8.904;2024-02-23T14:48:24;1.40;;;1.10;;
8622;SDS011;4349;47.552;8.904;2024-02-23T14:50:52;0.90;;;0.90;;
8622;SDS011;4349;47.552;8.904;2024-02-23T14:53:19;1.10;;;1.10;;
8622;SDS011;4349;47.552;8.904;2024-02-23T14:55:47;0.97;;;0.87;;
8622;SDS011;4349;47.552;8.904;2024-02-23T14:58:16;1.17;;;1.17;;
8622;SDS011;4349;47.552;8.904;2024-02-23T15:00:44;0.90;;;0.90;;
8622;SDS011;4349;47.552;8.904;2024-02-23T15:03:11;1.00;;;0.90;;
8622;SDS011;4349;47.552;8.904;2024-02-23T15:05:39;0.90;;;0.90;;
8622;SDS011;4349;47.552;8.904;2024-02-23T15:08:07;0.90;;;0.90;;
8622;SDS011;4349;47.552;8.904;2024-02-23T15:10:34;1.00;;;1.00;;
8622;SDS011;4349;47.552;8.904;2024-02-23T15:13:02;1.23;;;0.90;;
8622;SDS011;4349;47.552;8.904;2024-02-23T15:15:31;0.73;;;0.73;;
8622;SDS011;4349;47.552;8.904;2024-02-23T15:17:58;0.87;;;0.87;;
8622;SDS011;4349;47.552;8.904;2024-02-23T15:20:26;1.67;;;1.10;;